Time;durP1;ratioP1;P1;durP2;ratioP2;P2;SDS_P1;SDS_P2;PMS_P1;PMS_P2;Temp;Humidity;BMP_temperature;BMP_pressure;BME280_temperature;BME280_humidity;BME280_pressure;Samples;Min_cycle;Max_cycle;Signal;HPM_P1;HPM_P2
2021/08/23 00:00:44;;;;;;;6.43;5.50;;;16.70;99.90;;;;;;4936601;29;20840;-89
2021/08/23 00:03:11;;;;;;;8.77;5.87;;;16.60;99.90;;;;;;4937228;29;20458;-90
2021/08/23 00:05:37;;;;;;;6.73;4.23;;;16.60;99.90;;;;;;4937446;29;20909;-89
2021/08/23 00:08:06;;;;;;;6.30;5.70;;;16.60;99.90;;;;;;4923931;29;20460;-89
2021/08/23 00:10:33;;;;;;;7.23;6.10;;;16.50;99.90;;;;;;4917923;29;20944;-89
2021/08/23 00:13:00;;;;;;;7.20;5.30;;;16.60;99.90;;;;;;4918147;29;20478;-89
2021/08/23 00:15:26;;;;;;;6.03;5.03;;;16.60;99.90;;;;;;4933894;29;20464;-89
2021/08/23 00:17:54;;;;;;;8.37;6.10;;;16.60;99.90;;;;;;4957135;29;20434;-90
2021/08/23 00:20:25;;;;;;;5.53;4.63;;;16.60;99.90;;;;;;4946371;29;20502;-89
2021/08/23 00:22:52;;;;;;;8.20;6.30;;;16.60;99.90;;;;;;4931821;29;20482;-89
2021/08/23 00:25:19;;;;;;;6.27;5.67;;;16.60;99.90;;;;;;4937212;29;20461;-89
2021/08/23 00:27:46;;;;;;;6.93;5.07;;;16.70;99.90;;;;;;4919825;29;20510;-89
2021/08/23 00:30:15;;;;;;;7.40;6.37;;;16.70;99.90;;;;;;4918969;29;20455;-89
2021/08/23 00:32:42;;;;;;;5.50;5.00;;;16.60;99.90;;;;;;4918752;29;20483;-89
2021/08/23 00:35:11;;;;;;;7.80;6.20;;;16.60;99.90;;;;;;4922839;29;20888;-89
2021/08/23 00:37:38;;;;;;;7.17;5.87;;;16.60;99.90;;;;;;4918897;29;20446;-90
2021/08/23 00:40:06;;;;;;;7.37;4.77;;;16.70;99.90;;;;;;4923672;29;20482;-90
2021/08/23 00:42:33;;;;;;;9.30;5.30;;;16.70;99.90;;;;;;4936431;29;20472;-89
2021/08/23 00:45:00;;;;;;;5.47;4.97;;;16.60;99.90;;;;;;4948853;29;20957;-90
2021/08/23 00:47:26;;;;;;;4.80;4.30;;;16.70;99.90;;;;;;4941921;29;20494;-89
2021/08/23 00:49:53;;;;;;;6.70;5.07;;;16.70;99.90;;;;;;4937097;29;20481;-90
2021/08/23 00:52:21;;;;;;;6.17;5.57;;;16.70;99.90;;;;;;4936775;29;20473;-89
2021/08/23 00:54:49;;;;;;;6.77;5.20;;;16.60;99.90;;;;;;4936844;29;20989;-89
2021/08/23 00:57:15;;;;;;;6.33;5.73;;;16.70;99.90;;;;;;4936620;29;20456;-89
2021/08/23 00:59:43;;;;;;;5.67;4.27;;;16.60;99.90;;;;;;4956774;29;20481;-89
2021/08/23 01:02:17;;;;;;;8.40;5.67;;;16.60;99.90;;;;;;4956828;29;20465;-89
2021/08/23 01:04:49;;;;;;;6.57;4.50;;;16.70;99.90;;;;;;4957185;28;20425;-90
2021/08/23 01:07:18;;;;;;;6.10;5.20;;;16.70;99.90;;;;;;4949886;28;20453;-89
2021/08/23 01:09:52;;;;;;;5.77;4.93;;;16.60;99.90;;;;;;4935715;29;20825;-90
2021/08/23 01:12:19;;;;;;;5.27;4.77;;;16.70;99.90;;;;;;4934922;29;20473;-89
2021/08/23 01:14:46;;;;;;;6.03;4.70;;;16.70;99.90;;;;;;4935725;29;20501;-89
2021/08/23 01:17:15;;;;;;;6.30;5.40;;;16.70;99.90;;;;;;4935714;29;20446;-88
2021/08/23 01:19:48;;;;;;;8.43;5.37;;;16.70;99.90;;;;;;4935536;29;20485;-90
2021/08/23 01:22:15;;;;;;;5.10;4.60;;;16.70;99.90;;;;;;4936413;29;20477;-89
2021/08/23 01:24:45;;;;;;;6.67;5.70;;;16.60;99.90;;;;;;4937231;29;20456;-89
2021/08/23 01:27:14;;;;;;;5.83;5.07;;;16.60;99.90;;;;;;4937554;29;20974;-89
2021/08/23 01:29:52;;;;;;;5.33;4.83;;;16.60;99.90;;;;;;4936541;29;20474;-88
2021/08/23 01:32:22;;;;;;;6.00;5.40;;;16.60;99.90;;;;;;4947918;29;20477;-88
2021/08/23 01:34:53;;;;;;;6.33;4.80;;;16.60;99.90;;;;;;4940484;29;20457;-88
2021/08/23 01:37:21;;;;;;;7.27;4.27;;;16.70;99.90;;;;;;4940754;29;20460;-88
2021/08/23 01:39:48;;;;;;;4.77;4.37;;;16.70;99.90;;;;;;4939118;29;20489;-89
2021/08/23 01:42:16;;;;;;;5.93;4.90;;;16.70;99.90;;;;;;4939347;29;20473;-89
2021/08/23 01:44:44;;;;;;;8.43;4.70;;;16.70;99.90;;;;;;4939417;29;20458;-89
2021/08/23 01:47:11;;;;;;;5.10;4.50;;;16.70;99.90;;;;;;4931424;29;20884;-88
2021/08/23 01:49:39;;;;;;;4.80;4.30;;;16.70;99.90;;;;;;4924539;29;20448;-89
2021/08/23 01:52:07;;;;;;;5.73;4.50;;;16.60;99.90;;;;;;4929807;29;20466;-89
2021/08/23 01:54:34;;;;;;;6.57;5.37;;;16.70;99.90;;;;;;4926184;29;20455;-89
2021/08/23 01:57:01;;;;;;;8.13;4.77;;;16.70;99.90;;;;;;4922502;29;20454;-88
2021/08/23 01:59:27;;;;;;;5.37;4.83;;;16.70;99.90;;;;;;4922488;29;20457;-88
2021/08/23 02:01:54;;;;;;;7.13;6.33;;;16.70;99.90;;;;;;4923211;29;20451;-88
2021/08/23 02:04:21;;;;;;;9.77;5.50;;;16.80;99.90;;;;;;4921476;29;20455;-88
2021/08/23 02:06:48;;;;;;;5.80;5.20;;;16.80;99.90;;;;;;4919841;29;20454;-89
2021/08/23 02:09:15;;;;;;;5.70;5.30;;;16.70;99.90;;;;;;4920071;29;20461;-88
2021/08/23 02:11:42;;;;;;;7.03;4.87;;;16.80;99.90;;;;;;4921753;29;20451;-88
2021/08/23 02:14:10;;;;;;;18.70;5.63;;;16.80;99.90;;;;;;4939068;29;20482;-88
2021/08/23 02:16:39;;;;;;;6.57;4.50;;;16.90;99.90;;;;;;4939793;29;20484;-89
2021/08/23 02:19:06;;;;;;;8.50;4.13;;;16.90;99.90;;;;;;4937233;29;20493;-88
2021/08/23 02:21:33;;;;;;;7.50;4.57;;;16.90;99.90;;;;;;4940260;29;20493;-88
2021/08/23 02:24:01;;;;;;;5.67;4.50;;;16.90;99.90;;;;;;4939267;29;20489;-89
2021/08/23 02:26:28;;;;;;;5.30;4.90;;;16.90;99.90;;;;;;4939008;29;20445;-89
2021/08/23 02:28:54;;;;;;;5.93;5.33;;;16.90;99.90;;;;;;4941013;29;20450;-88
2021/08/23 02:31:21;;;;;;;4.87;4.47;;;16.90;99.90;;;;;;4939167;29;20506;-88
2021/08/23 02:33:48;;;;;;;6.73;4.73;;;16.90;99.90;;;;;;4939001;29;20470;-88
2021/08/23 02:36:14;;;;;;;5.70;4.43;;;17.00;99.90;;;;;;4942343;29;20431;-88
2021/08/23 02:38:41;;;;;;;6.10;4.87;;;17.00;99.90;;;;;;4943178;29;20477;-89
2021/08/23 02:41:11;;;;;;;5.73;4.40;;;16.90;99.90;;;;;;4942522;29;20530;-89
2021/08/23 02:43:38;;;;;;;5.20;4.57;;;16.90;99.90;;;;;;4942415;29;20483;-89
2021/08/23 02:46:04;;;;;;;8.10;4.20;;;16.90;99.90;;;;;;4930958;29;20449;-88
2021/08/23 02:48:31;;;;;;;6.00;4.10;;;16.90;99.90;;;;;;4950870;29;20429;-89
2021/08/23 02:50:58;;;;;;;4.53;4.10;;;16.90;99.90;;;;;;4953419;29;20959;-88
2021/08/23 02:53:25;;;;;;;5.17;4.77;;;16.90;99.90;;;;;;4941440;29;20454;-88
2021/08/23 02:55:51;;;;;;;5.30;4.80;;;17.00;99.90;;;;;;4940912;29;20943;-89
2021/08/23 02:58:19;;;;;;;4.87;4.37;;;17.00;99.90;;;;;;4927045;29;20466;-88
2021/08/23 03:00:46;;;;;;;5.13;4.60;;;17.00;99.90;;;;;;4924392;29;20492;-88
2021/08/23 03:03:13;;;;;;;10.57;4.20;;;17.00;99.90;;;;;;4920659;29;20466;-88
2021/08/23 03:05:39;;;;;;;5.87;4.07;;;17.00;99.90;;;;;;4921988;29;20457;-88
2021/08/23 03:08:06;;;;;;;5.43;4.00;;;17.00;99.90;;;;;;4918407;29;20455;-89
2021/08/23 03:10:33;;;;;;;4.23;3.83;;;16.90;99.90;;;;;;4919795;29;20496;-89
2021/08/23 03:13:00;;;;;;;5.77;4.63;;;16.90;99.90;;;;;;4918210;29;20470;-89
2021/08/23 03:15:28;;;;;;;6.60;5.00;;;16.90;99.90;;;;;;4918967;29;20462;-88
2021/08/23 03:17:55;;;;;;;6.63;5.07;;;16.90;99.90;;;;;;4918445;29;20451;-89
2021/08/23 03:20:21;;;;;;;5.87;5.37;;;16.90;99.90;;;;;;4919528;29;20907;-88
2021/08/23 03:22:48;;;;;;;7.10;4.50;;;16.80;99.90;;;;;;4934970;23;20523;-88
2021/08/23 03:25:15;;;;;;;5.87;4.83;;;16.80;99.90;;;;;;4959122;29;20437;-91
2021/08/23 03:27:42;;;;;;;5.23;4.73;;;16.80;99.90;;;;;;4956945;29;20449;-90
2021/08/23 03:30:10;;;;;;;4.43;4.03;;;16.70;99.90;;;;;;4959462;28;20450;-90
2021/08/23 03:32:38;;;;;;;6.67;5.37;;;16.80;99.90;;;;;;4959128;28;20451;-90
2021/08/23 03:35:07;;;;;;;5.30;4.63;;;16.80;99.90;;;;;;4976943;28;20451;-90
2021/08/23 03:37:34;;;;;;;5.60;4.70;;;16.70;99.90;;;;;;4976733;28;20445;-90
2021/08/23 03:40:01;;;;;;;6.27;4.83;;;16.80;99.90;;;;;;4975384;28;20952;-90
2021/08/23 03:42:27;;;;;;;5.30;4.83;;;16.70;99.90;;;;;;4974592;28;20448;-89
2021/08/23 03:44:54;;;;;;;8.47;4.70;;;16.70;99.90;;;;;;4968718;28;20483;-90
2021/08/23 03:47:22;;;;;;;4.87;4.13;;;16.90;99.90;;;;;;4975580;28;20436;-90
2021/08/23 03:49:52;;;;;;;4.60;4.10;;;16.90;99.90;;;;;;4977442;28;20495;-90
2021/08/23 03:52:18;;;;;;;6.00;5.10;;;16.90;99.90;;;;;;4976843;28;20448;-90
2021/08/23 03:54:45;;;;;;;5.93;5.10;;;16.90;99.90;;;;;;4978108;28;20467;-90
2021/08/23 03:57:12;;;;;;;5.70;5.17;;;17.00;99.90;;;;;;4992926;28;20987;-90
2021/08/23 03:59:39;;;;;;;5.33;4.53;;;17.00;99.90;;;;;;4977718;28;20440;-90
2021/08/23 04:02:05;;;;;;;8.03;4.60;;;17.00;99.90;;;;;;4975892;28;20487;-90
2021/08/23 04:04:32;;;;;;;5.00;4.60;;;16.90;99.90;;;;;;4975342;28;20997;-90
2021/08/23 04:07:00;;;;;;;6.10;4.90;;;17.00;99.90;;;;;;4978113;28;20451;-89
2021/08/23 04:09:27;;;;;;;4.27;3.87;;;17.00;99.90;;;;;;4996290;28;20455;-90
2021/08/23 04:11:54;;;;;;;4.80;4.30;;;17.10;99.90;;;;;;4978774;28;20799;-90
2021/08/23 04:14:20;;;;;;;4.10;3.70;;;17.00;99.90;;;;;;4976896;28;20473;-90
2021/08/23 04:16:47;;;;;;;5.33;4.60;;;17.00;99.90;;;;;;4966622;28;20835;-90
2021/08/23 04:19:14;;;;;;;4.43;4.03;;;17.00;99.90;;;;;;4956474;28;20456;-90
2021/08/23 04:21:40;;;;;;;5.03;4.13;;;17.00;99.90;;;;;;4966678;28;20455;-90
2021/08/23 04:24:09;;;;;;;4.87;4.37;;;17.10;99.90;;;;;;4959584;28;20476;-90
2021/08/23 04:26:35;;;;;;;6.37;4.73;;;17.10;99.90;;;;;;4956152;28;20457;-90
2021/08/23 04:29:02;;;;;;;5.47;4.53;;;17.10;99.90;;;;;;4955454;28;20942;-91
2021/08/23 04:31:31;;;;;;;7.00;4.60;;;17.10;99.90;;;;;;4955594;28;20953;-90
2021/08/23 04:33:58;;;;;;;7.30;3.80;;;17.10;99.90;;;;;;4957320;28;20508;-90
2021/08/23 04:36:24;;;;;;;5.60;5.10;;;17.00;99.90;;;;;;4955744;28;20443;-90
2021/08/23 04:38:51;;;;;;;4.47;4.07;;;17.10;99.90;;;;;;4961000;28;20468;-90
2021/08/23 04:41:19;;;;;;;4.83;3.83;;;17.10;99.90;;;;;;4959948;28;20483;-90
2021/08/23 04:43:46;;;;;;;5.30;4.47;;;17.10;99.90;;;;;;4961770;28;20441;-90
2021/08/23 04:46:13;;;;;;;6.00;3.70;;;17.10;99.90;;;;;;4976033;28;20417;-90
2021/08/23 04:48:39;;;;;;;7.30;3.73;;;17.10;99.90;;;;;;4969821;28;20449;-90
2021/08/23 04:51:07;;;;;;;4.00;3.70;;;17.10;99.90;;;;;;4974032;28;20457;-91
2021/08/23 04:53:33;;;;;;;3.57;3.23;;;17.20;99.90;;;;;;4976830;28;21036;-88
2021/08/23 04:56:00;;;;;;;6.13;3.47;;;17.10;99.90;;;;;;4976254;28;20448;-89
2021/08/23 04:58:28;;;;;;;4.60;3.67;;;17.20;99.90;;;;;;4995174;28;20440;-91
2021/08/23 05:00:55;;;;;;;4.93;3.40;;;17.20;99.90;;;;;;4984385;28;20489;-88
2021/08/23 05:03:22;;;;;;;5.73;4.03;;;17.20;99.90;;;;;;4976125;28;20494;-89
2021/08/23 05:05:49;;;;;;;5.23;4.73;;;17.20;99.90;;;;;;4975318;28;20968;-89
2021/08/23 05:08:19;;;;;;;4.63;3.97;;;17.20;99.90;;;;;;4960138;28;20488;-89
2021/08/23 05:10:46;;;;;;;7.00;3.97;;;17.20;99.90;;;;;;4961918;28;20881;-90
2021/08/23 05:13:13;;;;;;;4.40;4.00;;;17.20;99.90;;;;;;4966816;28;20456;-89
2021/08/23 05:15:41;;;;;;;5.50;3.70;;;17.20;99.90;;;;;;4972511;28;20459;-90
2021/08/23 05:18:08;;;;;;;4.47;4.03;;;17.20;99.90;;;;;;4961755;28;20464;-90
2021/08/23 05:20:35;;;;;;;3.90;3.60;;;17.20;99.90;;;;;;4960043;28;20457;-91
2021/08/23 05:23:02;;;;;;;6.00;3.43;;;17.30;99.90;;;;;;4960752;28;21035;-91
2021/08/23 05:25:32;;;;;;;3.57;3.27;;;17.20;99.90;;;;;;4960952;28;20464;-91
2021/08/23 05:27:58;;;;;;;5.80;3.50;;;17.30;99.90;;;;;;4963092;28;20460;-90
2021/08/23 05:30:25;;;;;;;4.43;3.73;;;17.30;99.90;;;;;;4964379;28;20811;-91
2021/08/23 05:32:54;;;;;;;4.13;3.63;;;17.30;99.90;;;;;;4971459;28;20843;-90
2021/08/23 05:35:25;;;;;;;4.73;4.00;;;17.40;99.90;;;;;;4988450;28;20475;-91
2021/08/23 05:37:52;;;;;;;4.80;3.97;;;17.40;99.90;;;;;;4982330;28;20452;-89
2021/08/23 05:40:23;;;;;;;3.70;3.20;;;17.40;99.90;;;;;;4981049;28;20526;-90
2021/08/23 05:42:49;;;;;;;4.43;3.23;;;17.40;99.90;;;;;;4980732;28;20992;-90
2021/08/23 05:45:16;;;;;;;6.50;4.47;;;17.40;99.90;;;;;;4980455;28;20445;-90
2021/08/23 05:47:46;;;;;;;4.93;4.53;;;17.40;99.90;;;;;;4979755;28;20481;-90
2021/08/23 05:50:21;;;;;;;5.80;4.80;;;17.40;99.90;;;;;;4979495;28;20455;-90
2021/08/23 05:52:48;;;;;;;7.37;4.97;;;17.30;99.90;;;;;;4995918;28;20448;-89
2021/08/23 05:55:15;;;;;;;3.87;3.53;;;17.40;99.90;;;;;;4987097;28;20518;-87
2021/08/23 05:57:42;;;;;;;4.10;3.70;;;17.40;99.90;;;;;;4980606;28;20463;-84
2021/08/23 06:00:10;;;;;;;5.90;3.53;;;17.40;99.90;;;;;;4986330;28;20452;-82
2021/08/23 06:02:37;;;;;;;6.60;4.40;;;17.50;99.90;;;;;;4990817;28;20487;-82
2021/08/23 06:05:04;;;;;;;4.63;3.93;;;17.50;99.90;;;;;;4976366;28;20463;-84
2021/08/23 06:07:34;;;;;;;4.10;3.70;;;17.60;99.90;;;;;;4971904;28;20464;-84
2021/08/23 06:10:01;;;;;;;4.40;3.97;;;17.60;99.90;;;;;;4975197;28;20450;-83
2021/08/23 06:12:27;;;;;;;4.63;3.90;;;17.80;99.90;;;;;;4975746;28;20448;-83
2021/08/23 06:14:54;;;;;;;4.53;3.37;;;17.90;99.90;;;;;;4972067;28;20481;-84
2021/08/23 06:17:21;;;;;;;4.47;3.37;;;18.10;99.90;;;;;;4969298;28;20438;-86
2021/08/23 06:19:48;;;;;;;4.00;2.90;;;18.30;99.90;;;;;;4971727;28;20550;-85
2021/08/23 06:22:14;;;;;;;3.83;3.43;;;18.60;99.90;;;;;;4977601;28;20466;-84
2021/08/23 06:24:42;;;;;;;8.47;4.23;;;18.90;99.90;;;;;;4973793;28;20491;-85
2021/08/23 06:27:09;;;;;;;4.10;3.57;;;19.10;99.90;;;;;;4996161;28;20453;-85
2021/08/23 06:29:36;;;;;;;4.67;3.33;;;19.30;99.90;;;;;;4981969;28;20476;-85
2021/08/23 06:32:03;;;;;;;3.40;3.03;;;19.40;99.90;;;;;;4970331;28;20536;-85
2021/08/23 06:34:30;;;;;;;3.80;3.17;;;19.40;99.90;;;;;;4975045;28;20481;-84
2021/08/23 06:36:57;;;;;;;7.23;3.37;;;19.40;99.90;;;;;;4973995;28;20450;-84
2021/08/23 06:39:24;;;;;;;7.53;3.57;;;19.40;99.90;;;;;;4974549;28;20451;-84
2021/08/23 06:41:52;;;;;;;3.90;3.57;;;19.40;99.90;;;;;;4973550;28;20995;-84
2021/08/23 06:44:20;;;;;;;5.50;3.63;;;19.40;99.90;;;;;;4961073;29;20463;-84
2021/08/23 06:46:46;;;;;;;6.50;4.10;;;19.40;99.90;;;;;;4959182;29;20456;-84
2021/08/23 06:49:13;;;;;;;4.40;4.00;;;19.50;99.90;;;;;;4971374;28;20438;-85
2021/08/23 06:52:03;;;;;;;4.47;4.07;;;19.40;99.90;;;;;;4979832;28;20433;-84
2021/08/23 06:54:29;;;;;;;6.53;3.70;;;19.30;99.90;;;;;;4975976;28;20467;-84
2021/08/23 06:58:34;;;;;;;4.60;3.65;;;19.10;99.90;;;;;;5102831;27;1247311;-85
2021/08/23 07:01:00;;;;;;;7.10;3.90;;;19.00;99.90;;;;;;5121445;28;20199;-84
2021/08/23 07:03:28;;;;;;;6.50;4.00;;;18.90;99.90;;;;;;5121404;28;20472;-85
2021/08/23 07:05:54;;;;;;;8.90;4.07;;;19.00;99.90;;;;;;5128888;28;20810;-86
2021/08/23 07:08:21;;;;;;;4.87;4.37;;;19.10;99.90;;;;;;5120942;28;20445;-84
2021/08/23 07:10:49;;;;;;;4.60;3.90;;;19.10;99.90;;;;;;5127571;28;20430;-84
2021/08/23 07:13:16;;;;;;;5.57;3.70;;;19.20;99.90;;;;;;5133153;28;20535;-84
2021/08/23 07:15:44;;;;;;;5.00;4.50;;;19.10;99.90;;;;;;5122610;28;20438;-84
2021/08/23 07:18:10;;;;;;;4.70;3.73;;;19.20;99.90;;;;;;5121437;28;20427;-84
2021/08/23 07:20:37;;;;;;;6.67;3.63;;;19.10;99.90;;;;;;5123832;28;20434;-83
2021/08/23 07:23:04;;;;;;;5.23;3.60;;;18.90;99.90;;;;;;5122399;28;20459;-82
2021/08/23 07:25:31;;;;;;;6.13;3.83;;;18.90;99.90;;;;;;5124510;28;20434;-83
2021/08/23 07:28:00;;;;;;;6.27;4.40;;;18.90;99.90;;;;;;5129751;28;20462;-82
2021/08/23 07:30:27;;;;;;;5.50;4.43;;;19.00;99.90;;;;;;5128242;28;20466;-82
2021/08/23 07:32:55;;;;;;;5.30;3.60;;;19.00;99.90;;;;;;5126464;28;20458;-83
2021/08/23 07:35:22;;;;;;;4.57;4.17;;;19.10;99.90;;;;;;5126443;28;20449;-83
2021/08/23 07:37:49;;;;;;;5.60;4.67;;;19.30;99.90;;;;;;5118368;28;20448;-83
2021/08/23 07:40:17;;;;;;;4.83;3.87;;;19.40;99.90;;;;;;5123099;28;20443;-83
2021/08/23 07:42:44;;;;;;;6.57;4.37;;;19.50;99.90;;;;;;5122725;28;20443;-83
2021/08/23 07:45:13;;;;;;;5.30;3.03;;;19.70;99.90;;;;;;5124043;28;20430;-83
2021/08/23 07:47:41;;;;;;;6.87;3.67;;;20.00;99.90;;;;;;5121306;28;20520;-83
2021/08/23 07:50:10;;;;;;;4.83;4.40;;;20.50;99.90;;;;;;5121801;28;20441;-83
2021/08/23 07:52:38;;;;;;;8.93;3.67;;;20.60;99.90;;;;;;5122104;28;20438;-83
2021/08/23 07:55:06;;;;;;;3.60;3.30;;;20.70;99.90;;;;;;5126456;28;20465;-82
2021/08/23 07:57:33;;;;;;;3.70;3.40;;;20.60;99.90;;;;;;5135641;28;20826;-83
2021/08/23 07:59:59;;;;;;;3.57;3.27;;;20.70;99.90;;;;;;5120146;28;20444;-83
2021/08/23 08:02:26;;;;;;;3.80;3.50;;;20.70;99.90;;;;;;5123203;28;20441;-83
2021/08/23 08:04:53;;;;;;;4.23;3.43;;;20.70;99.90;;;;;;5123582;28;20442;-82
2021/08/23 08:07:21;;;;;;;5.93;4.10;;;20.90;99.90;;;;;;5123661;28;20473;-89
2021/08/23 08:09:47;;;;;;;10.63;3.60;;;20.80;99.90;;;;;;5113620;28;20465;-88
2021/08/23 08:12:14;;;;;;;6.00;3.83;;;20.80;99.90;;;;;;5114174;28;20445;-88
2021/08/23 08:14:41;;;;;;;6.57;4.10;;;20.60;99.90;;;;;;5113379;28;20457;-89
2021/08/23 08:17:08;;;;;;;4.90;3.87;;;20.40;99.90;;;;;;5114040;28;20508;-88
2021/08/23 08:19:36;;;;;;;4.23;3.83;;;20.30;99.90;;;;;;5116454;28;21029;-88
2021/08/23 08:22:05;;;;;;;4.03;3.63;;;20.40;99.90;;;;;;5112411;28;20426;-89
2021/08/23 08:24:33;;;;;;;4.40;3.97;;;20.80;99.90;;;;;;5106574;28;20516;-89
2021/08/23 08:27:00;;;;;;;4.63;3.83;;;21.20;99.90;;;;;;5098943;28;20471;-89
2021/08/23 08:29:27;;;;;;;3.80;3.40;;;21.70;99.90;;;;;;5108374;28;20952;-87
2021/08/23 08:31:54;;;;;;;6.53;5.23;;;21.70;99.90;;;;;;5108787;28;20452;-88
2021/08/23 08:34:21;;;;;;;6.30;4.70;;;21.50;99.90;;;;;;5104980;28;20474;-88
2021/08/23 08:36:47;;;;;;;4.80;4.23;;;21.70;99.90;;;;;;5106554;28;20438;-87
2021/08/23 08:39:14;;;;;;;4.27;3.70;;;21.80;99.90;;;;;;5103279;28;20449;-87
2021/08/23 08:41:42;;;;;;;4.37;3.70;;;22.00;99.90;;;;;;5104979;28;20428;-86
2021/08/23 08:44:09;;;;;;;3.30;3.00;;;21.90;99.90;;;;;;5107389;28;20477;-87
2021/08/23 08:46:36;;;;;;;3.93;3.50;;;22.10;99.90;;;;;;5126220;28;20416;-87
2021/08/23 08:49:12;;;;;;;3.63;2.83;;;22.30;99.90;;;;;;5132786;28;20469;-86
2021/08/23 08:58:27;;;;;;;6.03;3.10;;;22.60;99.90;;;;;;5126952;28;20432;-92
2021/08/23 09:01:26;;;;;;;3.70;3.30;;;22.60;99.90;;;;;;5101208;28;20462;-91
2021/08/23 09:03:53;;;;;;;4.47;2.83;;;22.70;99.90;;;;;;5134830;28;20486;-91
2021/08/23 09:06:21;;;;;;;5.53;4.23;;;22.90;99.90;;;;;;5124962;28;20473;-91
2021/08/23 09:08:48;;;;;;;5.60;3.43;;;23.10;99.90;;;;;;5120405;28;20475;-91
2021/08/23 09:11:17;;;;;;;4.03;3.10;;;23.30;99.90;;;;;;5120080;28;20457;-91
2021/08/23 09:14:03;;;;;;;5.70;3.20;;;23.60;99.90;;;;;;5091324;28;20455;-92
2021/08/23 09:16:32;;;;;;;5.50;3.93;;;23.40;99.90;;;;;;5103598;28;20430;-91
2021/08/23 09:18:59;;;;;;;7.57;3.77;;;23.10;99.90;;;;;;5136542;28;20437;-92
2021/08/23 09:21:30;;;;;;;7.40;3.50;;;23.40;99.90;;;;;;5123186;28;20449;-89
2021/08/23 09:23:58;;;;;;;4.20;3.50;;;23.80;99.90;;;;;;5111377;22;20491;-85
2021/08/23 09:26:31;;;;;;;3.50;3.20;;;24.70;99.90;;;;;;5062706;28;20447;-85
2021/08/23 09:29:00;;;;;;;5.47;3.70;;;25.50;98.00;;;;;;5071699;28;20471;-83
2021/08/23 09:31:28;;;;;;;4.20;3.00;;;25.40;97.20;;;;;;5063006;28;20440;-85
2021/08/23 09:33:59;;;;;;;3.50;3.20;;;25.00;96.70;;;;;;5061888;28;20967;-85
2021/08/23 09:36:26;;;;;;;6.67;3.53;;;24.30;97.60;;;;;;5072109;28;20439;-85
2021/08/23 09:39:01;;;;;;;5.07;3.73;;;23.60;99.60;;;;;;5085476;28;20436;-83
2021/08/23 09:41:28;;;;;;;6.47;4.60;;;23.00;99.90;;;;;;5095574;28;20433;-83
2021/08/23 09:44:00;;;;;;;6.80;4.67;;;22.40;99.90;;;;;;5080571;28;20471;-84
2021/08/23 09:46:28;;;;;;;4.57;4.20;;;21.80;99.90;;;;;;5097346;28;20430;-85
2021/08/23 09:48:55;;;;;;;5.60;4.97;;;21.30;99.90;;;;;;5078290;28;20477;-88
2021/08/23 09:51:27;;;;;;;5.30;4.90;;;21.10;99.90;;;;;;5076047;28;20457;-86
2021/08/23 09:54:05;;;;;;;6.40;4.60;;;21.10;99.90;;;;;;5077357;28;20463;-86
2021/08/23 09:56:33;;;;;;;5.00;4.60;;;21.40;99.90;;;;;;5074985;28;20429;-85
2021/08/23 09:59:02;;;;;;;4.53;4.13;;;21.70;99.90;;;;;;5072927;28;20870;-85
2021/08/23 10:01:32;;;;;;;5.77;5.17;;;22.20;99.90;;;;;;5076235;28;20446;-85
2021/08/23 10:04:03;;;;;;;4.97;4.50;;;22.60;99.90;;;;;;5073406;28;20480;-82
2021/08/23 10:06:29;;;;;;;5.43;4.67;;;23.00;99.90;;;;;;5075878;28;20434;-84
2021/08/23 10:08:57;;;;;;;4.87;4.43;;;22.80;99.90;;;;;;5077073;28;20485;-84
2021/08/23 10:11:24;;;;;;;4.90;4.50;;;22.70;99.90;;;;;;5080543;28;20953;-83
2021/08/23 10:13:51;;;;;;;8.17;5.43;;;22.70;99.90;;;;;;5080443;28;20462;-83
2021/08/23 10:16:18;;;;;;;7.43;5.03;;;22.40;99.90;;;;;;5080526;28;20441;-84
2021/08/23 10:18:47;;;;;;;5.57;4.90;;;22.30;99.90;;;;;;5093552;28;20437;-82
2021/08/23 10:21:14;;;;;;;5.00;4.60;;;22.30;99.90;;;;;;5085789;28;20503;-83
2021/08/23 10:23:42;;;;;;;8.47;4.37;;;22.30;99.90;;;;;;5084752;28;20472;-83
2021/08/23 10:26:09;;;;;;;4.60;4.20;;;22.60;99.90;;;;;;5083061;28;21220;-83
2021/08/23 10:28:38;;;;;;;7.97;4.97;;;22.90;99.90;;;;;;5082093;28;20474;-83
2021/08/23 10:31:08;;;;;;;8.07;5.17;;;23.50;99.90;;;;;;5082072;28;20439;-84
2021/08/23 10:33:37;;;;;;;3.97;3.60;;;24.00;99.90;;;;;;5084921;28;20459;-84
2021/08/23 10:36:07;;;;;;;4.73;3.00;;;24.60;99.90;;;;;;5082824;28;20446;-83
2021/08/23 10:38:34;;;;;;;3.37;3.00;;;25.00;99.90;;;;;;5082960;28;20450;-85
2021/08/23 10:41:09;;;;;;;3.60;3.30;;;25.00;99.80;;;;;;5082648;28;20447;-84
2021/08/23 10:43:47;;;;;;;3.33;3.00;;;25.10;99.50;;;;;;5082330;28;20450;-83
2021/08/23 10:46:25;;;;;;;5.30;3.70;;;24.80;98.80;;;;;;5079886;28;21032;-83
2021/08/23 10:48:53;;;;;;;4.97;3.57;;;24.50;99.60;;;;;;5083704;28;20485;-83
2021/08/23 10:51:33;;;;;;;5.53;4.00;;;24.20;99.90;;;;;;5087915;28;20436;-83
2021/08/23 10:54:00;;;;;;;5.20;4.10;;;23.80;99.90;;;;;;5083727;28;20553;-83
2021/08/23 10:56:36;;;;;;;3.23;2.80;;;23.50;99.90;;;;;;5084708;28;20447;-84
2021/08/23 10:59:14;;;;;;;5.20;3.70;;;23.20;99.90;;;;;;5077377;28;20451;-85
2021/08/23 11:01:53;;;;;;;3.67;3.37;;;23.10;99.90;;;;;;5079889;28;20961;-86
2021/08/23 11:04:30;;;;;;;3.53;2.70;;;23.10;99.90;;;;;;5082297;28;20462;-84
2021/08/23 11:06:58;;;;;;;3.23;2.93;;;23.10;99.90;;;;;;5086532;28;20496;-85
2021/08/23 11:09:36;;;;;;;3.53;3.23;;;23.30;99.90;;;;;;5081927;28;20467;-83
2021/08/23 11:12:15;;;;;;;3.07;2.60;;;23.40;99.90;;;;;;5090874;28;20439;-82
2021/08/23 11:14:50;;;;;;;3.40;3.00;;;23.70;99.90;;;;;;5091729;28;20505;-86
2021/08/23 11:17:29;;;;;;;3.40;2.87;;;24.40;99.90;;;;;;5083252;28;20443;-84
2021/08/23 11:19:56;;;;;;;2.80;2.60;;;26.60;96.90;;;;;;5082385;28;20459;-85
2021/08/23 11:22:25;;;;;;;2.60;2.40;;;27.40;93.70;;;;;;5079709;28;20462;-83
2021/08/23 11:24:52;;;;;;;3.23;2.50;;;27.20;92.50;;;;;;5077352;28;20471;-82
2021/08/23 11:27:19;;;;;;;2.60;2.40;;;26.90;92.80;;;;;;5078574;28;20437;-81
2021/08/23 11:29:53;;;;;;;2.70;2.50;;;26.50;93.10;;;;;;5081816;28;20476;-85
2021/08/23 11:32:24;;;;;;;2.57;2.37;;;25.80;93.50;;;;;;5082734;28;20450;-85
2021/08/23 11:34:52;;;;;;;2.83;2.30;;;25.40;94.00;;;;;;5084158;28;20455;-83
2021/08/23 11:37:23;;;;;;;6.03;2.60;;;25.30;94.40;;;;;;5082806;28;20435;-83
2021/08/23 11:40:06;;;;;;;2.97;2.43;;;25.60;93.80;;;;;;5085323;28;20461;-85
2021/08/23 11:42:33;;;;;;;2.53;2.33;;;26.80;92.00;;;;;;5081845;28;20442;-85
2021/08/23 11:45:00;;;;;;;2.03;1.93;;;27.80;91.20;;;;;;5084959;28;20455;-84
2021/08/23 11:47:31;;;;;;;2.13;2.00;;;30.10;88.00;;;;;;5088035;28;20884;-86
2021/08/23 11:49:58;;;;;;;2.17;2.00;;;31.50;78.70;;;;;;5086102;28;20478;-84
2021/08/23 11:52:25;;;;;;;1.80;1.47;;;31.00;76.50;;;;;;5087039;28;20432;-86
2021/08/23 11:54:56;;;;;;;3.97;2.33;;;31.70;74.70;;;;;;5085775;28;20463;-87
2021/08/23 11:57:26;;;;;;;2.50;2.10;;;32.30;69.70;;;;;;5084135;28;20494;-85
2021/08/23 11:59:54;;;;;;;1.97;1.87;;;32.00;70.40;;;;;;5081667;28;20466;-85
2021/08/23 12:02:30;;;;;;;2.20;2.03;;;32.40;67.70;;;;;;5080037;28;20447;-85
2021/08/23 12:05:08;;;;;;;2.60;1.90;;;33.10;66.50;;;;;;5099943;28;20443;-82
2021/08/23 12:07:42;;;;;;;2.30;2.10;;;32.90;65.40;;;;;;5083704;28;20431;-85
2021/08/23 12:10:22;;;;;;;3.67;2.00;;;32.70;66.10;;;;;;5100197;28;20430;-83
2021/08/23 12:12:49;;;;;;;3.00;2.67;;;32.80;64.90;;;;;;5096788;28;20431;-84
2021/08/23 12:15:18;;;;;;;2.97;2.20;;;34.00;61.90;;;;;;5087516;28;20880;-84
2021/08/23 12:17:45;;;;;;;2.27;2.07;;;35.40;58.60;;;;;;5076735;28;20439;-85
2021/08/23 12:20:12;;;;;;;3.80;1.70;;;36.40;55.20;;;;;;5078006;28;20440;-85
2021/08/23 12:22:39;;;;;;;2.07;1.97;;;34.40;55.60;;;;;;5080844;28;20458;-86
2021/08/23 12:25:06;;;;;;;2.63;2.43;;;33.60;58.30;;;;;;5079800;28;20463;-85
2021/08/23 12:27:35;;;;;;;2.60;2.40;;;34.70;57.00;;;;;;5078115;28;20813;-87
2021/08/23 12:30:03;;;;;;;4.10;2.43;;;36.30;54.20;;;;;;5074979;28;20475;-85
2021/08/23 12:32:33;;;;;;;3.87;2.57;;;37.40;52.60;;;;;;5078741;28;20444;-85
2021/08/23 12:35:00;;;;;;;2.20;2.00;;;37.20;51.50;;;;;;5075227;28;20486;-85
2021/08/23 12:37:29;;;;;;;2.43;2.00;;;37.50;51.00;;;;;;5088954;28;20443;-85
2021/08/23 12:39:56;;;;;;;3.40;2.67;;;37.20;50.40;;;;;;5076659;28;20431;-85
2021/08/23 12:42:23;;;;;;;2.20;2.00;;;38.00;49.60;;;;;;5077781;28;20593;-85
2021/08/23 12:44:51;;;;;;;2.47;2.20;;;37.00;49.60;;;;;;5079085;28;21105;-85
2021/08/23 12:47:18;;;;;;;2.43;2.17;;;35.70;52.10;;;;;;5079202;28;20474;-84
2021/08/23 12:49:48;;;;;;;2.47;2.27;;;35.20;52.90;;;;;;5078579;28;20817;-84
2021/08/23 12:52:15;;;;;;;2.40;2.13;;;36.10;51.20;;;;;;5082464;28;20463;-84
2021/08/23 12:54:41;;;;;;;2.30;2.10;;;36.20;50.80;;;;;;5094532;28;20470;-83
2021/08/23 12:57:08;;;;;;;2.67;2.47;;;35.70;51.20;;;;;;5090889;28;20439;-84
2021/08/23 12:59:34;;;;;;;2.73;2.37;;;34.60;52.40;;;;;;5086501;28;20443;-83